University Heights, Iowa
Current Conditions -  °F | °C
As of 12:52 AM on Monday 24 Nov 2014 (Local Time) from KIOW Reporting Station
Haze Haze  
Wind Chill: 26°   Ceiling: 900
Heat Index: 37°   Visibility: 6mi
Dew Point: 37°   Wind: 23mph
Humidity: 100%   Direction: 310°NW
Pressure: 29.24"   Gusts: 30mph
Location:  41.5918°N, 91.6264°W
Report Text: KIOW 240652Z AUTO 31020G26KT 6SM BR OVC009 03/03 A2924 RMK AO2 PK WND 31033/0632 CIG 007V014 SLP903 T00280028 $
Loading
Personal Weather Stations






























Interactive Weather Map New forecast layout! Learn more

10-Day Weather Forecast

Advertisements
Track Severe Weather on mobile